Amherst, Virginia
Current Conditions -  °F | °C
As of 6:54 PM on Saturday 25 Oct 2014 (Local Time) from KLYH Reporting Station
Clear Clear  
Wind Chill: 17°   Ceiling: Unl
Heat Index: 17°   Visibility: 10mi
Dew Point:   Wind: 5mph
Humidity: 48%   Direction: 240°WSW
Pressure: 29.86"   Gusts: NA
Location:  37.59°N, 79.05°W
Report Text: KLYH 252254Z 24004KT 10SM CLR 17/06 A2986 RMK AO2 SLP110 T01720061
Loading
Personal Weather Stations






























Interactive Weather Map
Tropical Storm Tracking
New forecast layout! Learn more

10-Day Weather Forecast

Advertisements
Track Severe Weather on mobile